Time,TemperatureF,DewpointF,PressureIn,WindDirection,WindDirectionDegrees,WindSpeedMPH,WindSpeedGustMPH,Humidity,HourlyPrecipIn,Conditions,Clouds,dailyrainin,SoftwareType,DateUTC
2013-05-12 00:03:00,45.4,-99.9,-100.00,WNW,292,3.0,12.0,-999,0.04,,,-99.99,WeatherLink 5.4,2013-05-12 04:03:00,
2013-05-12 00:33:00,42.8,-99.9,-100.00,North,0,4.0,15.0,-999,0.01,,,-99.99,WeatherLink 5.4,2013-05-12 04:33:00,
2013-05-12 01:03:00,42.8,-99.9,-100.00,North,0,4.0,15.0,-999,0.01,,,-99.99,WeatherLink 5.4,2013-05-12 05:03:00,
2013-05-12 01:33:00,42.0,-99.9,-100.00,NW,315,2.0,9.0,-999,0.00,,,-99.99,WeatherLink 5.4,2013-05-12 05:33:00,
2013-05-12 02:03:00,40.8,-99.9,-100.00,NNW,337,2.0,8.0,-999,0.00,,,-99.99,WeatherLink 5.4,2013-05-12 06:03:00,
2013-05-12 02:33:00,39.8,-99.9,-100.00,North,0,1.0,7.0,-999,0.00,,,-99.99,WeatherLink 5.4,2013-05-12 06:33:00,
2013-05-12 03:03:00,39.4,-99.9,-100.00,NNW,337,0.0,4.0,-999,0.00,,,-99.99,WeatherLink 5.4,2013-05-12 07:03:00,
2013-05-12 03:33:00,38.9,-99.9,-100.00,North,-999,0.0,0.0,-999,0.00,,,-99.99,WeatherLink 5.4,2013-05-12 07:33:00,
2013-05-12 04:03:00,38.4,-99.9,-100.00,North,-999,0.0,0.0,-999,0.00,,,-99.99,WeatherLink 5.4,2013-05-12 08:03:00,
2013-05-12 04:33:00,37.5,-99.9,-100.00,North,-999,0.0,0.0,-999,0.00,,,-99.99,WeatherLink 5.4,2013-05-12 08:33:00,
2013-05-12 05:03:00,36.6,-99.9,-100.00,North,-999,0.0,0.0,-999,0.00,,,-99.99,WeatherLink 5.4,2013-05-12 09:03:00,
2013-05-12 05:33:00,36.8,-99.9,-100.00,WSW,247,1.0,9.0,-999,0.01,,,-99.99,WeatherLink 5.4,2013-05-12 09:33:00,
2013-05-12 06:03:00,36.4,-99.9,-100.00,WSW,247,1.0,5.0,-999,0.01,,,-99.99,WeatherLink 5.4,2013-05-12 10:03:00,
2013-05-12 06:33:00,36.4,-99.9,-100.00,WSW,247,3.0,8.0,-999,0.00,,,-99.99,WeatherLink 5.4,2013-05-12 10:33:00,
2013-05-12 07:03:00,36.3,-99.9,-100.00,WSW,247,2.0,8.0,-999,0.00,,,-99.99,WeatherLink 5.4,2013-05-12 11:03:00,
2013-05-12 07:33:00,36.9,-99.9,-100.00,WSW,247,3.0,9.0,-999,0.00,,,-99.99,WeatherLink 5.4,2013-05-12 11:33:00,
2013-05-12 08:03:00,37.3,-99.9,-100.00,WSW,247,3.0,7.0,-999,0.00,,,-99.99,WeatherLink 5.4,2013-05-12 12:03:00,
2013-05-12 08:33:00,38.3,-99.9,-100.00,SW,225,2.0,9.0,-999,0.00,,,-99.99,WeatherLink 5.4,2013-05-12 12:33:00,
2013-05-12 09:03:00,39.5,-99.9,-100.00,WSW,247,4.0,13.0,-999,0.00,,,-99.99,WeatherLink 5.4,2013-05-12 13:03:00,
2013-05-12 09:33:00,41.6,-99.9,-100.00,West,270,7.0,20.0,-999,0.00,,,-99.99,WeatherLink 5.4,2013-05-12 13:33:00,
2013-05-12 10:03:00,42.4,-99.9,-100.00,West,270,6.0,19.0,-999,0.00,,,-99.99,WeatherLink 5.4,2013-05-12 14:03:00,
2013-05-12 10:33:00,43.2,-99.9,-100.00,West,270,7.0,17.0,-999,0.00,,,-99.99,WeatherLink 5.4,2013-05-12 14:33:00,
2013-05-12 11:03:00,41.4,-99.9,-100.00,NW,315,5.0,18.0,-999,0.01,,,-99.99,WeatherLink 5.4,2013-05-12 15:03:00,
2013-05-12 11:33:00,39.4,-99.9,-100.00,NW,315,4.0,17.0,-999,0.04,,,-99.99,WeatherLink 5.4,2013-05-12 15:33:00,
2013-05-12 12:03:00,42.5,-99.9,-100.00,NNW,337,6.0,16.0,-999,0.03,,,-99.99,WeatherLink 5.4,2013-05-12 16:03:00,
2013-05-12 12:33:00,42.5,-99.9,-100.00,NNW,337,6.0,17.0,-999,0.00,,,-99.99,WeatherLink 5.4,2013-05-12 16:33:00,
2013-05-12 13:03:00,41.7,-99.9,-100.00,NW,315,5.0,15.0,-999,0.00,,,-99.99,WeatherLink 5.4,2013-05-12 17:03:00,
2013-05-12 13:33:00,40.8,-99.9,-100.00,West,270,4.0,15.0,-999,0.01,,,-99.99,WeatherLink 5.4,2013-05-12 17:33:00,
2013-05-12 14:03:00,42.9,-99.9,-100.00,West,270,6.0,17.0,-999,0.01,,,-99.99,WeatherLink 5.4,2013-05-12 18:03:00,
2013-05-12 14:33:00,44.1,-99.9,-100.00,West,270,4.0,17.0,-999,0.00,,,-99.99,WeatherLink 5.4,2013-05-12 18:33:00,
2013-05-12 15:03:00,45.8,-99.9,-100.00,NW,315,7.0,24.0,-999,0.00,,,-99.99,WeatherLink 5.4,2013-05-12 19:03:00,
2013-05-12 15:33:00,45.5,-99.9,-100.00,NNW,337,6.0,17.0,-999,0.00,,,-99.99,WeatherLink 5.4,2013-05-12 19:33:00,
2013-05-12 16:03:00,46.2,-99.9,-100.00,WNW,292,7.0,22.0,-999,0.00,,,-99.99,WeatherLink 5.4,2013-05-12 20:03:00,
2013-05-12 16:33:00,46.0,-99.9,-100.00,NNW,337,6.0,21.0,-999,0.00,,,-99.99,WeatherLink 5.4,2013-05-12 20:33:00,
2013-05-12 17:03:00,46.3,-99.9,-100.00,NNW,337,6.0,20.0,-999,0.00,,,-99.99,WeatherLink 5.4,2013-05-12 21:03:00,
2013-05-12 17:33:00,48.0,-99.9,-100.00,WNW,292,6.0,17.0,-999,0.00,,,-99.99,WeatherLink 5.4,2013-05-12 21:33:00,
2013-05-12 18:03:00,47.9,-99.9,-100.00,NW,315,6.0,18.0,-999,0.00,,,-99.99,WeatherLink 5.4,2013-05-12 22:03:00,
2013-05-12 18:33:00,47.3,-99.9,-100.00,NW,315,6.0,18.0,-999,0.00,,,-99.99,WeatherLink 5.4,2013-05-12 22:33:00,
2013-05-12 19:03:00,47.0,-99.9,-100.00,NW,315,4.0,13.0,-999,0.00,,,-99.99,WeatherLink 5.4,2013-05-12 23:03:00,
2013-05-12 19:33:00,46.4,-99.9,-100.00,NNW,337,4.0,13.0,-999,0.00,,,-99.99,WeatherLink 5.4,2013-05-12 23:33:00,
2013-05-12 20:03:00,45.8,-99.9,-100.00,NW,315,6.0,17.0,-999,0.00,,,-99.99,WeatherLink 5.4,2013-05-13 00:03:00,
2013-05-12 20:33:00,45.3,-99.9,-100.00,NNW,337,4.0,15.0,-999,0.00,,,-99.99,WeatherLink 5.4,2013-05-13 00:33:00,
2013-05-12 21:03:00,44.6,-99.9,-100.00,NW,315,5.0,17.0,-999,0.00,,,-99.99,WeatherLink 5.4,2013-05-13 01:03:00,
2013-05-12 21:33:00,43.9,-99.9,-100.00,NNW,337,6.0,17.0,-999,0.00,,,-99.99,WeatherLink 5.4,2013-05-13 01:33:00,
2013-05-12 22:03:00,43.0,-99.9,-100.00,NNW,337,3.0,11.0,-999,0.00,,,-99.99,WeatherLink 5.4,2013-05-13 02:03:00,
2013-05-12 22:33:00,42.5,-99.9,-100.00,NW,315,4.0,14.0,-999,0.00,,,-99.99,WeatherLink 5.4,2013-05-13 02:33:00,
2013-05-12 23:03:00,41.4,-99.9,-100.00,NW,315,3.0,11.0,-999,0.00,,,-99.99,WeatherLink 5.4,2013-05-13 03:03:00,
2013-05-12 23:33:00,41.5,-99.9,-100.00,NW,315,3.0,12.0,-999,0.00,,,-99.99,WeatherLink 5.4,2013-05-13 03:33:00,